createdAt,value
2023-03-23T15:58:49.234Z,9.70
2023-03-23T16:01:20.782Z,11.30
2023-03-23T16:03:54.428Z,8.50
2023-03-23T16:06:25.539Z,9.70
2023-03-23T16:08:55.387Z,9.90
2023-03-23T16:11:24.413Z,8.90
2023-03-23T16:13:51.746Z,7.30
2023-03-23T16:16:23.410Z,6.10
2023-03-23T16:18:51.012Z,5.90
2023-03-23T16:21:18.109Z,5.40
2023-03-23T16:23:46.474Z,6.20
2023-03-23T16:26:14.730Z,6.50
2023-03-23T16:28:43.047Z,5.90
2023-03-23T16:31:10.648Z,8.70
2023-03-23T16:33:37.825Z,11.40
2023-03-23T16:36:05.215Z,15.70
2023-03-23T16:38:32.095Z,13.70
2023-03-23T16:40:59.204Z,16.40
2023-03-23T16:43:26.615Z,12.70
2023-03-23T16:45:56.719Z,8.90
2023-03-23T16:48:23.999Z,7.50
2023-03-23T16:50:52.062Z,9.60
2023-03-23T16:53:19.143Z,9.20
2023-03-23T16:55:48.325Z,7.10
2023-03-23T16:58:18.145Z,7.60
2023-03-23T17:00:50.021Z,10.50
2023-03-23T17:03:21.365Z,11.20
2023-03-23T17:05:50.135Z,14.90
2023-03-23T17:08:17.892Z,13.50
2023-03-23T17:10:45.015Z,11.90
2023-03-23T17:13:12.262Z,11.80
2023-03-23T17:15:43.083Z,15.70
2023-03-23T17:18:11.501Z,14.80
2023-03-23T17:20:38.481Z,16.50
2023-03-23T17:23:06.004Z,16.10
2023-03-23T17:25:32.880Z,23.00
2023-03-23T17:28:06.428Z,19.60
2023-03-23T17:30:34.437Z,17.70
2023-03-23T17:33:01.374Z,16.90
2023-03-23T17:35:28.499Z,15.00
2023-03-23T17:37:55.724Z,38.00
2023-03-23T17:40:22.469Z,20.80
2023-03-23T17:42:49.474Z,18.70
2023-03-23T17:45:16.417Z,27.30
2023-03-23T17:47:43.170Z,21.30
2023-03-23T17:50:11.338Z,23.70
2023-03-23T17:52:39.928Z,22.70
2023-03-23T17:55:07.290Z,23.30
2023-03-23T17:57:35.312Z,19.10
2023-03-23T18:00:04.214Z,19.70
2023-03-23T18:02:31.051Z,22.40
2023-03-23T18:04:59.949Z,20.30
2023-03-23T18:07:27.090Z,23.20
2023-03-23T18:09:58.959Z,22.50
2023-03-23T18:12:26.353Z,30.70
2023-03-23T18:14:57.662Z,24.20
2023-03-23T18:17:25.341Z,23.60
2023-03-23T18:19:52.351Z,22.10
2023-03-23T18:22:19.157Z,22.00
2023-03-23T18:24:46.269Z,21.80
2023-03-23T18:27:13.378Z,22.30
2023-03-23T18:29:40.403Z,25.20
2023-03-23T18:32:08.925Z,27.40
2023-03-23T18:34:38.092Z,24.50
2023-03-23T18:37:04.889Z,22.30
2023-03-23T18:39:34.233Z,20.90
2023-03-23T18:42:01.471Z,20.10
2023-03-23T18:44:28.578Z,18.10
2023-03-23T18:46:55.627Z,19.40
2023-03-23T18:49:22.879Z,18.90
2023-03-23T18:51:49.609Z,22.20
2023-03-23T18:54:17.744Z,27.10
2023-03-23T18:56:44.817Z,23.30
2023-03-23T18:59:11.887Z,24.60
2023-03-23T19:01:38.724Z,28.40
2023-03-23T19:04:06.381Z,28.00
2023-03-23T19:06:35.398Z,30.00
2023-03-23T19:09:02.648Z,25.70
2023-03-23T19:11:30.018Z,23.70
2023-03-23T19:16:27.065Z,24.10
2023-03-23T19:18:53.878Z,20.70
2023-03-23T19:21:25.326Z,21.50
2023-03-23T19:23:54.188Z,23.60
2023-03-23T19:26:28.758Z,22.80
2023-03-23T19:31:25.964Z,23.00
2023-03-23T19:33:53.518Z,22.40
2023-03-23T19:36:21.960Z,24.20
2023-03-23T19:38:50.830Z,20.40
2023-03-23T19:41:19.015Z,23.70
2023-03-23T19:43:46.492Z,19.10
2023-03-23T19:46:14.646Z,19.20
2023-03-23T19:48:41.844Z,21.20
2023-03-23T19:51:10.604Z,19.40
2023-03-23T19:53:39.594Z,18.90
2023-03-23T19:56:16.699Z,20.50
2023-03-23T19:58:44.025Z,16.90
2023-03-23T20:01:11.302Z,18.20
2023-03-23T20:03:48.730Z,15.60
2023-03-23T20:06:16.561Z,17.40
2023-03-23T20:08:45.864Z,17.10
2023-03-23T20:11:16.170Z,17.70
2023-03-23T20:13:44.797Z,15.70
2023-03-23T20:16:12.297Z,15.10
2023-03-23T20:18:40.355Z,12.90
2023-03-23T20:21:11.479Z,15.00
2023-03-23T20:23:40.654Z,14.60
2023-03-23T20:26:14.600Z,15.80
2023-03-23T20:28:42.933Z,14.60
2023-03-23T20:31:20.944Z,16.40
2023-03-23T20:34:00.817Z,15.90
2023-03-23T20:36:37.474Z,16.20
2023-03-23T20:39:08.419Z,16.00
2023-03-23T20:41:39.133Z,15.80
2023-03-23T20:44:08.043Z,15.90
2023-03-23T20:46:35.930Z,15.90
2023-03-23T20:49:03.269Z,14.80
2023-03-23T20:51:30.575Z,14.40
2023-03-23T20:53:57.481Z,14.80
2023-03-23T20:56:25.495Z,14.90
2023-03-23T20:58:52.572Z,11.30
2023-03-23T21:01:40.141Z,12.80
2023-03-23T21:04:15.657Z,12.00
2023-03-23T21:06:49.046Z,12.50
2023-03-23T21:09:17.736Z,11.70
2023-03-23T21:11:45.287Z,11.50
2023-03-23T21:14:13.246Z,19.50
2023-03-23T21:16:41.707Z,15.50
2023-03-23T21:19:09.268Z,13.20
2023-03-23T21:21:36.196Z,14.60
2023-03-23T21:24:03.675Z,10.80
2023-03-23T21:26:31.142Z,11.80
2023-03-23T21:29:00.768Z,14.00
2023-03-23T21:31:31.238Z,13.50
2023-03-23T21:33:59.071Z,11.10
2023-03-23T21:36:27.519Z,11.30
2023-03-23T21:38:56.146Z,12.10
2023-03-23T21:41:23.530Z,11.80
2023-03-23T21:43:50.876Z,13.80
2023-03-23T21:46:18.608Z,12.80
2023-03-23T21:48:51.431Z,10.40
2023-03-23T21:51:24.989Z,12.80
2023-03-23T21:53:54.470Z,12.80
2023-03-23T21:56:23.639Z,12.60
2023-03-23T21:58:51.451Z,11.60
2023-03-23T22:01:20.596Z,10.50
2023-03-23T22:03:47.588Z,11.60
2023-03-23T22:06:25.013Z,13.10
2023-03-23T22:08:52.374Z,14.80
2023-03-23T22:11:28.416Z,11.50
2023-03-23T22:13:57.287Z,13.70
2023-03-23T22:16:25.073Z,12.90
2023-03-23T22:18:53.609Z,12.40
2023-03-23T22:21:27.997Z,11.70
2023-03-23T22:23:58.251Z,13.70
2023-03-23T22:26:27.401Z,15.10
2023-03-23T22:28:55.006Z,12.50
2023-03-23T22:31:24.997Z,12.50
2023-03-23T22:33:55.118Z,12.20
2023-03-23T22:36:24.357Z,11.00
2023-03-23T22:38:52.337Z,14.00
2023-03-23T22:41:25.665Z,12.90
2023-03-23T22:43:53.299Z,12.70
2023-03-23T22:46:20.306Z,13.70
2023-03-23T22:48:47.762Z,13.30
2023-03-23T22:51:17.212Z,11.40
2023-03-23T22:53:44.824Z,13.30
2023-03-23T22:56:12.401Z,12.40
2023-03-23T22:58:39.705Z,10.70
2023-03-23T23:01:14.445Z,10.90
2023-03-23T23:03:41.752Z,10.10
2023-03-23T23:06:11.497Z,11.50
2023-03-23T23:08:39.312Z,10.40
2023-03-23T23:11:07.005Z,11.20
2023-03-23T23:13:33.935Z,10.80
2023-03-23T23:16:02.275Z,10.00
2023-03-23T23:18:31.284Z,10.20
2023-03-23T23:21:01.026Z,12.10
2023-03-23T23:23:29.472Z,11.80
2023-03-23T23:25:57.547Z,12.60
2023-03-23T23:28:24.716Z,10.30
2023-03-23T23:30:52.177Z,9.90
2023-03-23T23:33:20.629Z,10.40
2023-03-23T23:35:48.045Z,9.50
2023-03-23T23:38:17.077Z,11.80
2023-03-23T23:40:46.381Z,9.80
2023-03-23T23:43:15.986Z,10.60
2023-03-23T23:45:43.680Z,9.80
2023-03-23T23:48:11.499Z,11.60
2023-03-23T23:50:38.475Z,9.90
2023-03-23T23:53:05.255Z,10.70
2023-03-23T23:55:32.443Z,10.40
2023-03-23T23:57:59.462Z,11.20
